sensor_id;sensor_type;location;lat;lon;timestamp;P1;durP1;ratioP1;P2;durP2;ratioP2
5129;SDS011;2583;50.946;6.954;2023-04-15T00:01:09;5.00;;;2.27;;
5129;SDS011;2583;50.946;6.954;2023-04-15T00:03:37;7.60;;;2.53;;
5129;SDS011;2583;50.946;6.954;2023-04-15T00:06:04;4.77;;;2.13;;
5129;SDS011;2583;50.946;6.954;2023-04-15T00:08:31;6.83;;;2.73;;
5129;SDS011;2583;50.946;6.954;2023-04-15T00:10:58;6.13;;;2.97;;
5129;SDS011;2583;50.946;6.954;2023-04-15T00:13:31;4.70;;;2.00;;
5129;SDS011;2583;50.946;6.954;2023-04-15T00:15:59;3.97;;;3.00;;
5129;SDS011;2583;50.946;6.954;2023-04-15T00:18:26;4.33;;;2.00;;
5129;SDS011;2583;50.946;6.954;2023-04-15T00:20:54;7.73;;;4.37;;
5129;SDS011;2583;50.946;6.954;2023-04-15T00:23:21;4.10;;;2.77;;
5129;SDS011;2583;50.946;6.954;2023-04-15T00:25:48;6.40;;;2.23;;
5129;SDS011;2583;50.946;6.954;2023-04-15T00:28:16;3.87;;;2.80;;
5129;SDS011;2583;50.946;6.954;2023-04-15T00:30:43;6.80;;;2.70;;
5129;SDS011;2583;50.946;6.954;2023-04-15T00:33:11;5.33;;;2.47;;
5129;SDS011;2583;50.946;6.954;2023-04-15T00:35:38;4.07;;;2.73;;
5129;SDS011;2583;50.946;6.954;2023-04-15T00:38:05;4.10;;;2.90;;
5129;SDS011;2583;50.946;6.954;2023-04-15T00:40:33;6.50;;;2.90;;
5129;SDS011;2583;50.946;6.954;2023-04-15T00:43:00;6.07;;;2.90;;
5129;SDS011;2583;50.946;6.954;2023-04-15T00:45:27;4.30;;;2.90;;
5129;SDS011;2583;50.946;6.954;2023-04-15T00:47:54;6.97;;;3.27;;
5129;SDS011;2583;50.946;6.954;2023-04-15T00:50:22;7.53;;;3.47;;
5129;SDS011;2583;50.946;6.954;2023-04-15T00:52:48;4.93;;;2.97;;
5129;SDS011;2583;50.946;6.954;2023-04-15T00:55:15;4.17;;;2.93;;
5129;SDS011;2583;50.946;6.954;2023-04-15T00:57:42;4.20;;;2.80;;
5129;SDS011;2583;50.946;6.954;2023-04-15T01:00:10;4.13;;;2.77;;
5129;SDS011;2583;50.946;6.954;2023-04-15T01:02:37;3.87;;;2.80;;
5129;SDS011;2583;50.946;6.954;2023-04-15T01:05:04;7.00;;;3.20;;
5129;SDS011;2583;50.946;6.954;2023-04-15T01:07:32;6.70;;;2.47;;
5129;SDS011;2583;50.946;6.954;2023-04-15T01:09:59;4.50;;;2.77;;
5129;SDS011;2583;50.946;6.954;2023-04-15T01:12:26;7.73;;;3.00;;
5129;SDS011;2583;50.946;6.954;2023-04-15T01:14:54;7.73;;;2.80;;
5129;SDS011;2583;50.946;6.954;2023-04-15T01:17:22;4.43;;;2.23;;
5129;SDS011;2583;50.946;6.954;2023-04-15T01:19:50;4.47;;;2.60;;
5129;SDS011;2583;50.946;6.954;2023-04-15T01:22:17;6.97;;;2.83;;
5129;SDS011;2583;50.946;6.954;2023-04-15T01:24:46;4.20;;;2.50;;
5129;SDS011;2583;50.946;6.954;2023-04-15T01:27:38;3.73;;;2.27;;
5129;SDS011;2583;50.946;6.954;2023-04-15T01:30:07;4.50;;;2.60;;
5129;SDS011;2583;50.946;6.954;2023-04-15T01:32:35;5.83;;;3.30;;
5129;SDS011;2583;50.946;6.954;2023-04-15T01:35:03;5.00;;;2.70;;
5129;SDS011;2583;50.946;6.954;2023-04-15T01:37:30;3.70;;;2.33;;
5129;SDS011;2583;50.946;6.954;2023-04-15T01:39:58;6.33;;;3.07;;
5129;SDS011;2583;50.946;6.954;2023-04-15T01:42:25;4.30;;;2.67;;
5129;SDS011;2583;50.946;6.954;2023-04-15T01:44:52;4.60;;;2.37;;
5129;SDS011;2583;50.946;6.954;2023-04-15T01:47:19;3.73;;;2.83;;
5129;SDS011;2583;50.946;6.954;2023-04-15T01:49:47;2.90;;;2.00;;
5129;SDS011;2583;50.946;6.954;2023-04-15T01:52:13;5.50;;;2.70;;
5129;SDS011;2583;50.946;6.954;2023-04-15T01:54:40;6.30;;;2.80;;
5129;SDS011;2583;50.946;6.954;2023-04-15T01:57:07;3.90;;;3.00;;
5129;SDS011;2583;50.946;6.954;2023-04-15T01:59:35;5.33;;;3.50;;
5129;SDS011;2583;50.946;6.954;2023-04-15T02:02:02;3.73;;;3.33;;
5129;SDS011;2583;50.946;6.954;2023-04-15T02:04:29;3.90;;;2.70;;
5129;SDS011;2583;50.946;6.954;2023-04-15T02:06:56;5.20;;;3.10;;
5129;SDS011;2583;50.946;6.954;2023-04-15T02:09:23;3.57;;;3.27;;
5129;SDS011;2583;50.946;6.954;2023-04-15T02:11:51;8.10;;;2.70;;
5129;SDS011;2583;50.946;6.954;2023-04-15T02:14:19;4.20;;;3.00;;
5129;SDS011;2583;50.946;6.954;2023-04-15T02:16:46;5.07;;;2.73;;
5129;SDS011;2583;50.946;6.954;2023-04-15T02:19:13;4.50;;;2.87;;
5129;SDS011;2583;50.946;6.954;2023-04-15T02:21:40;4.10;;;3.03;;
5129;SDS011;2583;50.946;6.954;2023-04-15T02:24:07;4.40;;;2.70;;
5129;SDS011;2583;50.946;6.954;2023-04-15T02:26:34;4.30;;;3.33;;
5129;SDS011;2583;50.946;6.954;2023-04-15T02:29:01;6.00;;;2.87;;
5129;SDS011;2583;50.946;6.954;2023-04-15T02:31:28;6.03;;;4.00;;
5129;SDS011;2583;50.946;6.954;2023-04-15T02:33:55;7.60;;;3.43;;
5129;SDS011;2583;50.946;6.954;2023-04-15T02:36:22;3.63;;;2.87;;
5129;SDS011;2583;50.946;6.954;2023-04-15T02:38:49;3.77;;;3.30;;
5129;SDS011;2583;50.946;6.954;2023-04-15T02:41:16;4.30;;;2.90;;
5129;SDS011;2583;50.946;6.954;2023-04-15T02:43:42;3.80;;;2.47;;
5129;SDS011;2583;50.946;6.954;2023-04-15T02:46:09;3.90;;;2.80;;
5129;SDS011;2583;50.946;6.954;2023-04-15T02:48:40;4.30;;;3.13;;
5129;SDS011;2583;50.946;6.954;2023-04-15T02:51:13;4.57;;;3.10;;
5129;SDS011;2583;50.946;6.954;2023-04-15T02:53:45;4.90;;;2.93;;
5129;SDS011;2583;50.946;6.954;2023-04-15T02:56:12;5.50;;;3.23;;
5129;SDS011;2583;50.946;6.954;2023-04-15T02:58:40;5.90;;;3.00;;
5129;SDS011;2583;50.946;6.954;2023-04-15T03:01:08;4.43;;;3.27;;
5129;SDS011;2583;50.946;6.954;2023-04-15T03:03:35;7.07;;;3.37;;
5129;SDS011;2583;50.946;6.954;2023-04-15T03:06:02;3.73;;;2.67;;
5129;SDS011;2583;50.946;6.954;2023-04-15T03:08:29;4.10;;;2.77;;
5129;SDS011;2583;50.946;6.954;2023-04-15T03:10:57;5.80;;;3.60;;
5129;SDS011;2583;50.946;6.954;2023-04-15T03:13:26;7.90;;;3.23;;
5129;SDS011;2583;50.946;6.954;2023-04-15T03:15:52;3.20;;;2.90;;
5129;SDS011;2583;50.946;6.954;2023-04-15T03:18:19;4.40;;;3.23;;
5129;SDS011;2583;50.946;6.954;2023-04-15T03:20:46;5.60;;;3.53;;
5129;SDS011;2583;50.946;6.954;2023-04-15T03:23:13;3.77;;;2.60;;
5129;SDS011;2583;50.946;6.954;2023-04-15T03:25:40;5.23;;;2.80;;
5129;SDS011;2583;50.946;6.954;2023-04-15T03:28:07;7.00;;;3.13;;
5129;SDS011;2583;50.946;6.954;2023-04-15T03:30:34;4.93;;;3.67;;
5129;SDS011;2583;50.946;6.954;2023-04-15T03:33:01;3.93;;;2.67;;
5129;SDS011;2583;50.946;6.954;2023-04-15T03:35:28;4.73;;;3.10;;
5129;SDS011;2583;50.946;6.954;2023-04-15T03:37:55;3.20;;;2.63;;
5129;SDS011;2583;50.946;6.954;2023-04-15T03:40:22;3.53;;;3.07;;
5129;SDS011;2583;50.946;6.954;2023-04-15T03:42:48;4.40;;;2.93;;
5129;SDS011;2583;50.946;6.954;2023-04-15T03:45:15;5.00;;;3.50;;
5129;SDS011;2583;50.946;6.954;2023-04-15T03:47:42;4.00;;;3.03;;
5129;SDS011;2583;50.946;6.954;2023-04-15T03:50:09;3.13;;;2.83;;
5129;SDS011;2583;50.946;6.954;2023-04-15T03:52:36;3.80;;;3.50;;
5129;SDS011;2583;50.946;6.954;2023-04-15T03:55:03;7.13;;;3.70;;
5129;SDS011;2583;50.946;6.954;2023-04-15T03:57:30;3.67;;;3.37;;
5129;SDS011;2583;50.946;6.954;2023-04-15T03:59:57;6.20;;;3.67;;
5129;SDS011;2583;50.946;6.954;2023-04-15T04:02:23;4.60;;;3.57;;
5129;SDS011;2583;50.946;6.954;2023-04-15T04:04:51;4.23;;;3.33;;
5129;SDS011;2583;50.946;6.954;2023-04-15T04:07:18;7.70;;;3.83;;
5129;SDS011;2583;50.946;6.954;2023-04-15T04:09:45;4.43;;;4.03;;
5129;SDS011;2583;50.946;6.954;2023-04-15T04:12:12;4.47;;;3.77;;
5129;SDS011;2583;50.946;6.954;2023-04-15T04:14:39;3.63;;;3.17;;
5129;SDS011;2583;50.946;6.954;2023-04-15T04:17:06;4.60;;;3.30;;
5129;SDS011;2583;50.946;6.954;2023-04-15T04:19:33;9.67;;;3.00;;
5129;SDS011;2583;50.946;6.954;2023-04-15T04:22:00;4.87;;;3.43;;
5129;SDS011;2583;50.946;6.954;2023-04-15T04:24:27;4.63;;;2.97;;
5129;SDS011;2583;50.946;6.954;2023-04-15T04:26:53;3.90;;;2.97;;
5129;SDS011;2583;50.946;6.954;2023-04-15T04:29:21;8.93;;;3.97;;
5129;SDS011;2583;50.946;6.954;2023-04-15T04:31:48;7.70;;;3.23;;
5129;SDS011;2583;50.946;6.954;2023-04-15T04:34:15;13.57;;;3.60;;
5129;SDS011;2583;50.946;6.954;2023-04-15T04:36:42;5.40;;;3.50;;
5129;SDS011;2583;50.946;6.954;2023-04-15T04:39:09;5.23;;;3.17;;
5129;SDS011;2583;50.946;6.954;2023-04-15T04:41:36;4.70;;;3.00;;
5129;SDS011;2583;50.946;6.954;2023-04-15T04:44:03;5.10;;;3.40;;
5129;SDS011;2583;50.946;6.954;2023-04-15T04:46:29;5.50;;;4.20;;
5129;SDS011;2583;50.946;6.954;2023-04-15T04:48:56;5.13;;;2.83;;
5129;SDS011;2583;50.946;6.954;2023-04-15T04:51:23;5.03;;;3.53;;
5129;SDS011;2583;50.946;6.954;2023-04-15T04:53:50;8.47;;;4.10;;
5129;SDS011;2583;50.946;6.954;2023-04-15T04:56:17;6.20;;;4.10;;
5129;SDS011;2583;50.946;6.954;2023-04-15T04:58:44;9.03;;;3.57;;
5129;SDS011;2583;50.946;6.954;2023-04-15T05:01:11;5.67;;;3.73;;
5129;SDS011;2583;50.946;6.954;2023-04-15T05:03:38;8.30;;;3.30;;
5129;SDS011;2583;50.946;6.954;2023-04-15T05:06:05;4.43;;;3.90;;
5129;SDS011;2583;50.946;6.954;2023-04-15T05:08:34;7.90;;;3.50;;
5129;SDS011;2583;50.946;6.954;2023-04-15T05:11:02;11.67;;;3.60;;
5129;SDS011;2583;50.946;6.954;2023-04-15T05:13:29;5.47;;;4.07;;
5129;SDS011;2583;50.946;6.954;2023-04-15T05:15:56;5.57;;;3.57;;
5129;SDS011;2583;50.946;6.954;2023-04-15T05:18:23;7.70;;;3.90;;
5129;SDS011;2583;50.946;6.954;2023-04-15T05:20:49;6.87;;;3.40;;
5129;SDS011;2583;50.946;6.954;2023-04-15T05:23:16;3.53;;;2.60;;
5129;SDS011;2583;50.946;6.954;2023-04-15T05:25:43;5.83;;;4.20;;
5129;SDS011;2583;50.946;6.954;2023-04-15T05:28:10;6.10;;;3.50;;
5129;SDS011;2583;50.946;6.954;2023-04-15T05:30:37;7.00;;;3.53;;
5129;SDS011;2583;50.946;6.954;2023-04-15T05:33:04;3.93;;;3.30;;
5129;SDS011;2583;50.946;6.954;2023-04-15T05:35:31;6.87;;;3.83;;
5129;SDS011;2583;50.946;6.954;2023-04-15T05:37:58;4.60;;;4.20;;
5129;SDS011;2583;50.946;6.954;2023-04-15T05:40:25;10.33;;;4.37;;
5129;SDS011;2583;50.946;6.954;2023-04-15T05:42:53;6.50;;;4.73;;
5129;SDS011;2583;50.946;6.954;2023-04-15T05:45:20;7.03;;;4.40;;
5129;SDS011;2583;50.946;6.954;2023-04-15T05:47:46;8.00;;;4.80;;
5129;SDS011;2583;50.946;6.954;2023-04-15T05:50:16;6.63;;;5.03;;
5129;SDS011;2583;50.946;6.954;2023-04-15T05:52:42;9.03;;;5.07;;
5129;SDS011;2583;50.946;6.954;2023-04-15T05:55:10;8.07;;;4.67;;
5129;SDS011;2583;50.946;6.954;2023-04-15T05:57:37;6.87;;;4.27;;
5129;SDS011;2583;50.946;6.954;2023-04-15T06:00:04;8.50;;;6.03;;
5129;SDS011;2583;50.946;6.954;2023-04-15T06:02:32;5.20;;;4.70;;
5129;SDS011;2583;50.946;6.954;2023-04-15T06:04:59;5.17;;;4.67;;
5129;SDS011;2583;50.946;6.954;2023-04-15T06:07:30;4.60;;;4.10;;
5129;SDS011;2583;50.946;6.954;2023-04-15T06:09:57;7.00;;;4.30;;
5129;SDS011;2583;50.946;6.954;2023-04-15T06:12:24;6.30;;;4.80;;
5129;SDS011;2583;50.946;6.954;2023-04-15T06:14:51;6.30;;;4.23;;
5129;SDS011;2583;50.946;6.954;2023-04-15T06:17:17;6.93;;;4.43;;
5129;SDS011;2583;50.946;6.954;2023-04-15T06:19:44;5.40;;;4.30;;
5129;SDS011;2583;50.946;6.954;2023-04-15T06:22:11;4.33;;;4.03;;
5129;SDS011;2583;50.946;6.954;2023-04-15T06:24:38;9.17;;;4.87;;
5129;SDS011;2583;50.946;6.954;2023-04-15T06:27:05;4.40;;;4.00;;
5129;SDS011;2583;50.946;6.954;2023-04-15T06:29:32;5.63;;;4.67;;
5129;SDS011;2583;50.946;6.954;2023-04-15T06:31:59;5.03;;;4.53;;
5129;SDS011;2583;50.946;6.954;2023-04-15T06:34:26;5.20;;;4.80;;
5129;SDS011;2583;50.946;6.954;2023-04-15T06:36:52;6.60;;;4.87;;
5129;SDS011;2583;50.946;6.954;2023-04-15T06:39:20;6.93;;;5.07;;
5129;SDS011;2583;50.946;6.954;2023-04-15T06:41:46;8.40;;;5.03;;
5129;SDS011;2583;50.946;6.954;2023-04-15T06:44:13;6.40;;;4.77;;
5129;SDS011;2583;50.946;6.954;2023-04-15T06:46:41;10.27;;;4.90;;
5129;SDS011;2583;50.946;6.954;2023-04-15T06:49:07;12.10;;;5.30;;
5129;SDS011;2583;50.946;6.954;2023-04-15T06:51:34;5.10;;;4.43;;
5129;SDS011;2583;50.946;6.954;2023-04-15T06:54:02;4.93;;;4.53;;
5129;SDS011;2583;50.946;6.954;2023-04-15T06:56:31;6.73;;;4.83;;
5129;SDS011;2583;50.946;6.954;2023-04-15T06:58:58;5.23;;;4.70;;
5129;SDS011;2583;50.946;6.954;2023-04-15T07:01:26;6.03;;;5.10;;
5129;SDS011;2583;50.946;6.954;2023-04-15T07:03:53;5.97;;;5.07;;
5129;SDS011;2583;50.946;6.954;2023-04-15T07:06:20;5.40;;;4.90;;
5129;SDS011;2583;50.946;6.954;2023-04-15T07:08:47;7.50;;;5.07;;
5129;SDS011;2583;50.946;6.954;2023-04-15T07:11:14;7.70;;;5.90;;
5129;SDS011;2583;50.946;6.954;2023-04-15T07:13:40;11.23;;;5.80;;
5129;SDS011;2583;50.946;6.954;2023-04-15T07:16:07;6.27;;;5.60;;
5129;SDS011;2583;50.946;6.954;2023-04-15T07:18:34;8.50;;;6.40;;
5129;SDS011;2583;50.946;6.954;2023-04-15T07:21:01;6.60;;;6.10;;
5129;SDS011;2583;50.946;6.954;2023-04-15T07:23:27;7.30;;;6.60;;
5129;SDS011;2583;50.946;6.954;2023-04-15T07:25:54;22.13;;;7.07;;
5129;SDS011;2583;50.946;6.954;2023-04-15T07:28:22;9.20;;;6.83;;
5129;SDS011;2583;50.946;6.954;2023-04-15T07:30:48;6.97;;;6.27;;
5129;SDS011;2583;50.946;6.954;2023-04-15T07:33:15;7.07;;;6.37;;
5129;SDS011;2583;50.946;6.954;2023-04-15T07:35:42;7.47;;;6.77;;
5129;SDS011;2583;50.946;6.954;2023-04-15T07:38:10;7.23;;;6.00;;
5129;SDS011;2583;50.946;6.954;2023-04-15T07:40:39;7.80;;;6.23;;
5129;SDS011;2583;50.946;6.954;2023-04-15T07:43:07;7.90;;;7.00;;
5129;SDS011;2583;50.946;6.954;2023-04-15T07:45:35;6.80;;;6.10;;
5129;SDS011;2583;50.946;6.954;2023-04-15T07:48:01;8.03;;;6.37;;
5129;SDS011;2583;50.946;6.954;2023-04-15T07:50:28;6.90;;;6.10;;
5129;SDS011;2583;50.946;6.954;2023-04-15T07:52:55;5.80;;;5.50;;
5129;SDS011;2583;50.946;6.954;2023-04-15T07:55:23;9.43;;;6.77;;
5129;SDS011;2583;50.946;6.954;2023-04-15T07:57:51;8.33;;;7.53;;
5129;SDS011;2583;50.946;6.954;2023-04-15T08:00:18;9.13;;;5.80;;
5129;SDS011;2583;50.946;6.954;2023-04-15T08:02:45;7.93;;;6.77;;
5129;SDS011;2583;50.946;6.954;2023-04-15T08:05:14;6.73;;;6.27;;
5129;SDS011;2583;50.946;6.954;2023-04-15T08:07:41;6.97;;;6.37;;
5129;SDS011;2583;50.946;6.954;2023-04-15T08:10:07;8.83;;;7.20;;
5129;SDS011;2583;50.946;6.954;2023-04-15T08:12:35;6.43;;;5.87;;
5129;SDS011;2583;50.946;6.954;2023-04-15T08:15:02;6.60;;;6.00;;
5129;SDS011;2583;50.946;6.954;2023-04-15T08:17:29;4.50;;;4.10;;
5129;SDS011;2583;50.946;6.954;2023-04-15T08:19:56;3.07;;;2.77;;
5129;SDS011;2583;50.946;6.954;2023-04-15T08:22:23;5.40;;;2.57;;
5129;SDS011;2583;50.946;6.954;2023-04-15T08:24:50;3.73;;;2.17;;
5129;SDS011;2583;50.946;6.954;2023-04-15T08:27:17;2.53;;;2.00;;
5129;SDS011;2583;50.946;6.954;2023-04-15T08:29:44;3.27;;;1.30;;
5129;SDS011;2583;50.946;6.954;2023-04-15T08:32:11;2.63;;;1.70;;
5129;SDS011;2583;50.946;6.954;2023-04-15T08:34:38;4.23;;;1.80;;
5129;SDS011;2583;50.946;6.954;2023-04-15T08:37:04;3.07;;;1.90;;
5129;SDS011;2583;50.946;6.954;2023-04-15T08:39:33;1.80;;;1.57;;
5129;SDS011;2583;50.946;6.954;2023-04-15T08:42:00;3.23;;;2.23;;
5129;SDS011;2583;50.946;6.954;2023-04-15T08:44:29;2.70;;;2.40;;
5129;SDS011;2583;50.946;6.954;2023-04-15T08:47:01;2.10;;;1.40;;
5129;SDS011;2583;50.946;6.954;2023-04-15T08:49:29;1.67;;;1.57;;
5129;SDS011;2583;50.946;6.954;2023-04-15T08:51:59;2.00;;;1.60;;
5129;SDS011;2583;50.946;6.954;2023-04-15T08:54:27;3.00;;;1.60;;
5129;SDS011;2583;50.946;6.954;2023-04-15T08:56:56;1.67;;;1.53;;
5129;SDS011;2583;50.946;6.954;2023-04-15T08:59:24;2.60;;;1.90;;
5129;SDS011;2583;50.946;6.954;2023-04-15T09:01:51;3.73;;;1.90;;
5129;SDS011;2583;50.946;6.954;2023-04-15T09:04:18;8.43;;;1.80;;
5129;SDS011;2583;50.946;6.954;2023-04-15T09:06:45;1.60;;;1.40;;
5129;SDS011;2583;50.946;6.954;2023-04-15T09:09:12;3.20;;;2.00;;
5129;SDS011;2583;50.946;6.954;2023-04-15T09:11:40;4.97;;;3.60;;
5129;SDS011;2583;50.946;6.954;2023-04-15T09:14:07;1.97;;;1.77;;
5129;SDS011;2583;50.946;6.954;2023-04-15T09:19:24;4.20;;;1.73;;
5129;SDS011;2583;50.946;6.954;2023-04-15T09:21:52;3.50;;;1.50;;
5129;SDS011;2583;50.946;6.954;2023-04-15T09:24:23;2.13;;;1.70;;
5129;SDS011;2583;50.946;6.954;2023-04-15T09:26:52;2.27;;;1.80;;
5129;SDS011;2583;50.946;6.954;2023-04-15T09:29:20;4.13;;;2.20;;
5129;SDS011;2583;50.946;6.954;2023-04-15T09:31:50;2.07;;;1.80;;
5129;SDS011;2583;50.946;6.954;2023-04-15T09:34:18;2.53;;;1.73;;
5129;SDS011;2583;50.946;6.954;2023-04-15T09:39:13;2.23;;;2.00;;
5129;SDS011;2583;50.946;6.954;2023-04-15T09:41:40;3.00;;;2.10;;
5129;SDS011;2583;50.946;6.954;2023-04-15T09:44:06;2.47;;;1.93;;
5129;SDS011;2583;50.946;6.954;2023-04-15T09:46:48;3.60;;;2.70;;
5129;SDS011;2583;50.946;6.954;2023-04-15T09:49:15;2.30;;;2.10;;
5129;SDS011;2583;50.946;6.954;2023-04-15T09:51:43;2.20;;;2.00;;
5129;SDS011;2583;50.946;6.954;2023-04-15T09:54:23;1.90;;;1.70;;
5129;SDS011;2583;50.946;6.954;2023-04-15T09:56:49;1.93;;;1.83;;
5129;SDS011;2583;50.946;6.954;2023-04-15T09:59:16;2.27;;;1.83;;
5129;SDS011;2583;50.946;6.954;2023-04-15T10:01:45;2.20;;;1.83;;
5129;SDS011;2583;50.946;6.954;2023-04-15T10:04:12;3.40;;;2.40;;
5129;SDS011;2583;50.946;6.954;2023-04-15T10:06:41;3.10;;;2.90;;
5129;SDS011;2583;50.946;6.954;2023-04-15T10:09:08;2.93;;;2.73;;
5129;SDS011;2583;50.946;6.954;2023-04-15T10:11:35;3.20;;;2.87;;
5129;SDS011;2583;50.946;6.954;2023-04-15T10:14:02;3.13;;;2.83;;
5129;SDS011;2583;50.946;6.954;2023-04-15T10:16:30;5.10;;;2.73;;
5129;SDS011;2583;50.946;6.954;2023-04-15T10:18:59;3.40;;;3.20;;
5129;SDS011;2583;50.946;6.954;2023-04-15T10:21:27;3.60;;;3.40;;
5129;SDS011;2583;50.946;6.954;2023-04-15T10:23:55;3.47;;;3.27;;
5129;SDS011;2583;50.946;6.954;2023-04-15T10:26:27;4.23;;;3.93;;
5129;SDS011;2583;50.946;6.954;2023-04-15T10:28:54;4.13;;;2.90;;
5129;SDS011;2583;50.946;6.954;2023-04-15T10:31:25;3.10;;;2.90;;
5129;SDS011;2583;50.946;6.954;2023-04-15T10:33:52;3.20;;;2.90;;
5129;SDS011;2583;50.946;6.954;2023-04-15T10:36:19;3.80;;;3.50;;
5129;SDS011;2583;50.946;6.954;2023-04-15T10:38:46;3.23;;;3.00;;
5129;SDS011;2583;50.946;6.954;2023-04-15T10:41:14;3.40;;;3.10;;
5129;SDS011;2583;50.946;6.954;2023-04-15T10:43:55;3.40;;;3.20;;
5129;SDS011;2583;50.946;6.954;2023-04-15T10:46:39;2.80;;;2.60;;
5129;SDS011;2583;50.946;6.954;2023-04-15T10:49:08;4.87;;;3.33;;
5129;SDS011;2583;50.946;6.954;2023-04-15T10:51:46;2.77;;;2.57;;
5129;SDS011;2583;50.946;6.954;2023-04-15T10:56:51;5.80;;;2.90;;
5129;SDS011;2583;50.946;6.954;2023-04-15T10:59:31;2.80;;;2.60;;
5129;SDS011;2583;50.946;6.954;2023-04-15T11:07:38;4.13;;;2.30;;
5129;SDS011;2583;50.946;6.954;2023-04-15T11:12:52;3.17;;;2.90;;
5129;SDS011;2583;50.946;6.954;2023-04-15T11:17:57;3.20;;;2.90;;
5129;SDS011;2583;50.946;6.954;2023-04-15T11:20:25;3.33;;;3.03;;
5129;SDS011;2583;50.946;6.954;2023-04-15T11:22:52;2.50;;;2.30;;
5129;SDS011;2583;50.946;6.954;2023-04-15T11:25:39;3.50;;;3.30;;
5129;SDS011;2583;50.946;6.954;2023-04-15T11:28:08;2.57;;;2.37;;
5129;SDS011;2583;50.946;6.954;2023-04-15T11:30:35;2.90;;;2.70;;
5129;SDS011;2583;50.946;6.954;2023-04-15T11:33:06;3.13;;;2.83;;
5129;SDS011;2583;50.946;6.954;2023-04-15T11:35:35;4.10;;;3.80;;
5129;SDS011;2583;50.946;6.954;2023-04-15T11:38:07;2.93;;;2.73;;
5129;SDS011;2583;50.946;6.954;2023-04-15T11:40:37;4.07;;;2.53;;
5129;SDS011;2583;50.946;6.954;2023-04-15T11:43:14;2.77;;;2.57;;
5129;SDS011;2583;50.946;6.954;2023-04-15T11:45:57;2.30;;;2.20;;
5129;SDS011;2583;50.946;6.954;2023-04-15T11:48:26;2.47;;;2.30;;
5129;SDS011;2583;50.946;6.954;2023-04-15T11:50:55;2.57;;;2.37;;
5129;SDS011;2583;50.946;6.954;2023-04-15T11:53:36;2.23;;;2.13;;
5129;SDS011;2583;50.946;6.954;2023-04-15T11:56:05;2.43;;;2.23;;
5129;SDS011;2583;50.946;6.954;2023-04-15T11:58:33;2.30;;;2.10;;
5129;SDS011;2583;50.946;6.954;2023-04-15T12:01:04;4.83;;;3.00;;
5129;SDS011;2583;50.946;6.954;2023-04-15T12:03:39;2.60;;;2.40;;
5129;SDS011;2583;50.946;6.954;2023-04-15T12:14:01;3.83;;;3.63;;
5129;SDS011;2583;50.946;6.954;2023-04-15T12:16:32;3.70;;;3.50;;
5129;SDS011;2583;50.946;6.954;2023-04-15T12:19:22;3.83;;;3.53;;
5129;SDS011;2583;50.946;6.954;2023-04-15T12:21:57;4.53;;;4.23;;
5129;SDS011;2583;50.946;6.954;2023-04-15T12:24:26;6.00;;;5.50;;
5129;SDS011;2583;50.946;6.954;2023-04-15T12:26:56;6.03;;;5.63;;
5129;SDS011;2583;50.946;6.954;2023-04-15T12:29:27;5.37;;;5.07;;
5129;SDS011;2583;50.946;6.954;2023-04-15T12:31:55;4.00;;;3.80;;
5129;SDS011;2583;50.946;6.954;2023-04-15T12:34:36;3.90;;;3.67;;
5129;SDS011;2583;50.946;6.954;2023-04-15T12:37:05;5.00;;;4.70;;
5129;SDS011;2583;50.946;6.954;2023-04-15T12:39:37;4.07;;;3.87;;
5129;SDS011;2583;50.946;6.954;2023-04-15T12:42:06;3.80;;;3.60;;
5129;SDS011;2583;50.946;6.954;2023-04-15T12:44:34;6.40;;;5.80;;
5129;SDS011;2583;50.946;6.954;2023-04-15T12:47:01;7.40;;;6.80;;
5129;SDS011;2583;50.946;6.954;2023-04-15T12:49:29;7.30;;;6.90;;
5129;SDS011;2583;50.946;6.954;2023-04-15T12:51:58;10.40;;;9.53;;
5129;SDS011;2583;50.946;6.954;2023-04-15T12:54:26;7.43;;;7.03;;
5129;SDS011;2583;50.946;6.954;2023-04-15T12:56:54;7.63;;;7.13;;
5129;SDS011;2583;50.946;6.954;2023-04-15T12:59:21;10.20;;;8.60;;
5129;SDS011;2583;50.946;6.954;2023-04-15T13:01:50;6.77;;;6.27;;
5129;SDS011;2583;50.946;6.954;2023-04-15T13:04:19;9.93;;;9.17;;
5129;SDS011;2583;50.946;6.954;2023-04-15T13:06:47;7.30;;;6.80;;
5129;SDS011;2583;50.946;6.954;2023-04-15T13:09:14;3.80;;;3.60;;
5129;SDS011;2583;50.946;6.954;2023-04-15T13:11:41;4.33;;;4.03;;
5129;SDS011;2583;50.946;6.954;2023-04-15T13:14:08;4.40;;;4.10;;
5129;SDS011;2583;50.946;6.954;2023-04-15T13:16:37;4.53;;;4.23;;
5129;SDS011;2583;50.946;6.954;2023-04-15T13:19:04;3.93;;;3.63;;
5129;SDS011;2583;50.946;6.954;2023-04-15T13:21:31;4.07;;;3.77;;
5129;SDS011;2583;50.946;6.954;2023-04-15T13:24:01;3.50;;;3.20;;
5129;SDS011;2583;50.946;6.954;2023-04-15T13:26:28;3.40;;;3.20;;
5129;SDS011;2583;50.946;6.954;2023-04-15T13:28:56;3.23;;;3.03;;
5129;SDS011;2583;50.946;6.954;2023-04-15T13:31:23;4.30;;;3.90;;
5129;SDS011;2583;50.946;6.954;2023-04-15T13:33:50;4.63;;;4.03;;
5129;SDS011;2583;50.946;6.954;2023-04-15T13:36:17;13.23;;;10.70;;
5129;SDS011;2583;50.946;6.954;2023-04-15T13:38:43;8.03;;;7.00;;
5129;SDS011;2583;50.946;6.954;2023-04-15T13:41:10;8.97;;;8.10;;
5129;SDS011;2583;50.946;6.954;2023-04-15T13:43:37;9.43;;;8.17;;
5129;SDS011;2583;50.946;6.954;2023-04-15T13:46:04;6.60;;;6.10;;
5129;SDS011;2583;50.946;6.954;2023-04-15T13:48:31;7.30;;;6.73;;
5129;SDS011;2583;50.946;6.954;2023-04-15T13:50:58;7.57;;;6.97;;
5129;SDS011;2583;50.946;6.954;2023-04-15T13:53:24;7.37;;;4.57;;
5129;SDS011;2583;50.946;6.954;2023-04-15T13:56:03;5.17;;;4.67;;
5129;SDS011;2583;50.946;6.954;2023-04-15T13:58:31;4.00;;;3.70;;
5129;SDS011;2583;50.946;6.954;2023-04-15T14:00:58;4.00;;;3.70;;
5129;SDS011;2583;50.946;6.954;2023-04-15T14:03:25;3.67;;;3.47;;
5129;SDS011;2583;50.946;6.954;2023-04-15T14:05:52;3.00;;;2.80;;
5129;SDS011;2583;50.946;6.954;2023-04-15T14:08:21;3.53;;;2.87;;
5129;SDS011;2583;50.946;6.954;2023-04-15T14:10:48;2.80;;;2.60;;
5129;SDS011;2583;50.946;6.954;2023-04-15T14:13:15;3.10;;;2.90;;
5129;SDS011;2583;50.946;6.954;2023-04-15T14:15:44;3.00;;;2.80;;
5129;SDS011;2583;50.946;6.954;2023-04-15T14:18:11;3.53;;;3.23;;
5129;SDS011;2583;50.946;6.954;2023-04-15T14:20:38;2.87;;;2.60;;
5129;SDS011;2583;50.946;6.954;2023-04-15T14:23:05;3.23;;;3.03;;
5129;SDS011;2583;50.946;6.954;2023-04-15T14:25:32;2.90;;;2.70;;
5129;SDS011;2583;50.946;6.954;2023-04-15T14:27:59;3.60;;;2.77;;
5129;SDS011;2583;50.946;6.954;2023-04-15T14:30:27;2.80;;;2.60;;
5129;SDS011;2583;50.946;6.954;2023-04-15T14:32:54;4.10;;;3.13;;
5129;SDS011;2583;50.946;6.954;2023-04-15T14:35:21;3.20;;;3.00;;
5129;SDS011;2583;50.946;6.954;2023-04-15T14:37:50;3.80;;;3.60;;
5129;SDS011;2583;50.946;6.954;2023-04-15T14:40:18;3.07;;;2.87;;
5129;SDS011;2583;50.946;6.954;2023-04-15T14:42:45;4.37;;;2.73;;
5129;SDS011;2583;50.946;6.954;2023-04-15T14:45:12;3.40;;;3.20;;
5129;SDS011;2583;50.946;6.954;2023-04-15T14:47:39;4.10;;;3.77;;
5129;SDS011;2583;50.946;6.954;2023-04-15T14:50:06;4.20;;;3.90;;
5129;SDS011;2583;50.946;6.954;2023-04-15T14:52:33;5.83;;;5.40;;
5129;SDS011;2583;50.946;6.954;2023-04-15T14:55:07;6.77;;;6.17;;
5129;SDS011;2583;50.946;6.954;2023-04-15T14:57:38;6.37;;;6.03;;
5129;SDS011;2583;50.946;6.954;2023-04-15T15:00:06;5.73;;;5.33;;
5129;SDS011;2583;50.946;6.954;2023-04-15T15:02:36;7.00;;;5.87;;
5129;SDS011;2583;50.946;6.954;2023-04-15T15:05:06;6.43;;;5.83;;
5129;SDS011;2583;50.946;6.954;2023-04-15T15:07:34;6.00;;;5.60;;
5129;SDS011;2583;50.946;6.954;2023-04-15T15:10:04;6.27;;;5.67;;
5129;SDS011;2583;50.946;6.954;2023-04-15T15:12:31;6.90;;;6.30;;
5129;SDS011;2583;50.946;6.954;2023-04-15T15:14:59;6.93;;;6.23;;
5129;SDS011;2583;50.946;6.954;2023-04-15T15:17:30;7.00;;;6.40;;
5129;SDS011;2583;50.946;6.954;2023-04-15T15:19:57;9.13;;;8.53;;
5129;SDS011;2583;50.946;6.954;2023-04-15T15:22:24;10.57;;;9.67;;
5129;SDS011;2583;50.946;6.954;2023-04-15T15:24:51;10.27;;;9.60;;
5129;SDS011;2583;50.946;6.954;2023-04-15T15:27:18;9.13;;;8.53;;
5129;SDS011;2583;50.946;6.954;2023-04-15T15:29:45;9.07;;;8.47;;
5129;SDS011;2583;50.946;6.954;2023-04-15T15:32:12;9.00;;;8.30;;
5129;SDS011;2583;50.946;6.954;2023-04-15T15:34:39;8.77;;;7.97;;
5129;SDS011;2583;50.946;6.954;2023-04-15T15:37:06;9.00;;;8.10;;
5129;SDS011;2583;50.946;6.954;2023-04-15T15:39:33;8.40;;;7.90;;
5129;SDS011;2583;50.946;6.954;2023-04-15T15:42:01;7.40;;;6.80;;
5129;SDS011;2583;50.946;6.954;2023-04-15T15:44:28;7.67;;;7.03;;
5129;SDS011;2583;50.946;6.954;2023-04-15T15:46:54;5.80;;;5.50;;